TimeCDT,TemperatureF,Dew PointF,Humidity,Sea Level PressureIn,VisibilityMPH,Wind Direction,Wind SpeedMPH,Gust SpeedMPH,PrecipitationIn,Events,Conditions,WindDirDegrees,DateUTC
12:15 AM,62.6,48.2,59,29.78,10.0,South,4.6,-,N/A,,Partly Cloudy,180,2012-04-20 05:15:00
12:35 AM,62.6,48.2,59,29.77,10.0,South,4.6,-,N/A,,Clear,190,2012-04-20 05:35:00
12:55 AM,62.6,48.2,59,29.77,10.0,South,4.6,-,N/A,,Clear,190,2012-04-20 05:55:00
1:15 AM,62.6,48.2,59,29.78,9.0,SSW,4.6,-,N/A,,Mostly Cloudy,200,2012-04-20 06:15:00
1:35 AM,62.6,50.0,63,29.78,10.0,SSW,4.6,-,N/A,,Overcast,200,2012-04-20 06:35:00
1:55 AM,62.6,50.0,63,29.79,10.0,SSW,5.8,-,N/A,,Overcast,200,2012-04-20 06:55:00
2:15 AM,62.6,50.0,63,29.80,10.0,West,8.1,-,N/A,,Overcast,260,2012-04-20 07:15:00
2:35 AM,62.6,51.8,68,29.80,10.0,West,6.9,-,N/A,,Overcast,280,2012-04-20 07:35:00
2:55 AM,64.4,51.8,64,29.80,10.0,West,17.3,27.6,N/A,,Overcast,260,2012-04-20 07:55:00
3:15 AM,60.8,53.6,77,29.79,10.0,West,5.8,-,0.03,,Overcast,260,2012-04-20 08:15:00
3:35 AM,60.8,53.6,77,29.80,10.0,WSW,5.8,-,0.03,,Overcast,250,2012-04-20 08:35:00
3:55 AM,60.8,55.4,82,29.80,10.0,West,4.6,-,0.05,,Mostly Cloudy,280,2012-04-20 08:55:00
4:15 AM,60.8,55.4,82,29.77,10.0,WNW,10.4,-,0.04,,Mostly Cloudy,300,2012-04-20 09:15:00
4:35 AM,60.8,55.4,82,29.78,10.0,West,6.9,-,0.05,,Overcast,260,2012-04-20 09:35:00
4:55 AM,59.0,55.4,88,29.79,10.0,West,6.9,-,0.09,,Overcast,280,2012-04-20 09:55:00
5:15 AM,59.0,55.4,88,29.79,10.0,WNW,3.5,-,0.03,,Overcast,290,2012-04-20 10:15:00
5:35 AM,59.0,55.4,88,29.80,10.0,WSW,5.8,-,0.05,,Overcast,250,2012-04-20 10:35:00
5:55 AM,59.0,57.2,94,29.80,10.0,NNW,5.8,-,0.06,,Overcast,340,2012-04-20 10:55:00
6:15 AM,57.2,53.6,88,29.82,10.0,North,11.5,17.3,N/A,,Overcast,350,2012-04-20 11:15:00
6:35 AM,55.4,51.8,88,29.82,10.0,North,12.7,-,N/A,,Overcast,360,2012-04-20 11:35:00
6:55 AM,55.4,51.8,88,29.84,10.0,North,11.5,-,N/A,,Overcast,350,2012-04-20 11:55:00
7:15 AM,53.6,50.0,88,29.85,7.0,North,12.7,-,N/A,,Overcast,350,2012-04-20 12:15:00
7:35 AM,53.6,50.0,88,29.86,5.0,North,16.1,20.7,N/A,,Overcast,10,2012-04-20 12:35:00
7:55 AM,51.8,46.4,82,29.88,8.0,NNW,11.5,20.7,N/A,,Overcast,340,2012-04-20 12:55:00
8:15 AM,50.0,46.4,87,29.89,6.0,NNW,13.8,20.7,N/A,,Overcast,340,2012-04-20 13:15:00
8:35 AM,48.2,46.4,93,29.91,5.0,NNW,11.5,20.7,N/A,,Overcast,340,2012-04-20 13:35:00
8:55 AM,48.2,46.4,93,29.91,5.0,North,13.8,21.9,N/A,,Overcast,350,2012-04-20 13:55:00
9:15 AM,48.2,44.6,87,29.91,5.0,North,10.4,18.4,N/A,,Overcast,350,2012-04-20 14:15:00
9:35 AM,48.2,44.6,87,29.92,7.0,North,15.0,21.9,N/A,,Overcast,350,2012-04-20 14:35:00
9:55 AM,48.2,44.6,87,29.93,10.0,North,16.1,21.9,N/A,,Overcast,350,2012-04-20 14:55:00
10:15 AM,48.2,44.6,87,29.95,10.0,North,11.5,17.3,N/A,,Overcast,360,2012-04-20 15:15:00
10:35 AM,48.2,44.6,87,29.95,10.0,North,12.7,17.3,N/A,,Overcast,360,2012-04-20 15:35:00
10:55 AM,48.2,42.8,82,29.96,10.0,North,13.8,-,N/A,,Overcast,350,2012-04-20 15:55:00
11:15 AM,48.2,42.8,82,29.97,10.0,North,9.2,18.4,N/A,,Overcast,350,2012-04-20 16:15:00
11:35 AM,48.2,42.8,82,29.97,10.0,North,12.7,20.7,N/A,,Overcast,350,2012-04-20 16:35:00
11:55 AM,50.0,42.8,76,29.97,10.0,North,16.1,-,N/A,,Overcast,360,2012-04-20 16:55:00
12:15 PM,50.0,42.8,76,29.97,10.0,North,13.8,17.3,N/A,,Overcast,360,2012-04-20 17:15:00
12:35 PM,50.0,42.8,76,29.96,10.0,North,8.1,-,N/A,,Overcast,350,2012-04-20 17:35:00
12:55 PM,50.0,42.8,76,29.97,10.0,North,13.8,20.7,N/A,,Overcast,360,2012-04-20 17:55:00
1:15 PM,50.0,42.8,76,29.98,10.0,North,11.5,-,N/A,,Overcast,360,2012-04-20 18:15:00
1:35 PM,50.0,42.8,76,29.97,10.0,North,12.7,19.6,N/A,,Overcast,360,2012-04-20 18:35:00
1:55 PM,50.0,42.8,76,29.97,10.0,NNW,10.4,-,N/A,,Overcast,340,2012-04-20 18:55:00
2:15 PM,50.0,42.8,76,29.97,10.0,North,15.0,20.7,N/A,,Overcast,360,2012-04-20 19:15:00
2:35 PM,50.0,42.8,76,29.98,10.0,North,12.7,17.3,N/A,,Overcast,360,2012-04-20 19:35:00
2:55 PM,50.0,42.8,76,29.98,10.0,NNW,9.2,-,N/A,,Overcast,340,2012-04-20 19:55:00
3:15 PM,51.8,42.8,71,29.97,10.0,North,13.8,18.4,N/A,,Overcast,360,2012-04-20 20:15:00
3:35 PM,51.8,42.8,71,29.97,10.0,North,9.2,-,N/A,,Overcast,350,2012-04-20 20:35:00
3:55 PM,51.8,42.8,71,29.98,10.0,NNW,10.4,-,N/A,,Overcast,340,2012-04-20 20:55:00
4:15 PM,51.8,41.0,67,29.97,10.0,North,13.8,-,N/A,,Overcast,360,2012-04-20 21:15:00
4:35 PM,51.8,42.8,71,29.98,10.0,North,11.5,17.3,N/A,,Overcast,360,2012-04-20 21:35:00
4:55 PM,51.8,42.8,71,29.97,10.0,North,11.5,-,N/A,,Overcast,350,2012-04-20 21:55:00
5:15 PM,51.8,42.8,71,29.97,10.0,North,10.4,-,N/A,,Overcast,360,2012-04-20 22:15:00
5:35 PM,51.8,42.8,71,29.97,10.0,North,9.2,-,N/A,,Overcast,350,2012-04-20 22:35:00
5:55 PM,51.8,41.0,67,29.98,10.0,NNW,11.5,-,N/A,,Overcast,340,2012-04-20 22:55:00
6:15 PM,51.8,41.0,67,29.98,10.0,North,9.2,-,N/A,,Overcast,350,2012-04-20 23:15:00
6:35 PM,51.8,41.0,67,29.98,10.0,North,10.4,16.1,N/A,,Overcast,360,2012-04-20 23:35:00
6:55 PM,51.8,41.0,67,29.98,10.0,North,10.4,-,N/A,,Overcast,10,2012-04-20 23:55:00
7:15 PM,50.0,41.0,71,29.98,10.0,NNE,8.1,-,N/A,,Mostly Cloudy,20,2012-04-21 00:15:00
7:35 PM,50.0,39.2,66,29.98,10.0,NNE,8.1,-,N/A,,Partly Cloudy,20,2012-04-21 00:35:00
7:55 PM,48.2,39.2,71,29.99,10.0,NNE,8.1,-,N/A,,Clear,20,2012-04-21 00:55:00
8:35 PM,46.4,39.2,76,30.00,10.0,NNE,5.8,-,N/A,,Clear,30,2012-04-21 01:35:00
9:15 PM,46.4,39.2,76,30.01,10.0,NNE,3.5,-,N/A,,Clear,30,2012-04-21 02:15:00
9:35 PM,44.6,39.2,81,30.02,10.0,NE,3.5,-,N/A,,Clear,40,2012-04-21 02:35:00
9:55 PM,44.6,39.2,81,30.03,10.0,ENE,3.5,-,N/A,,Clear,70,2012-04-21 02:55:00
10:15 PM,44.6,39.2,81,30.02,10.0,Calm,Calm,-,N/A,,Clear,0,2012-04-21 03:15:00
10:35 PM,44.6,39.2,81,30.02,10.0,Calm,Calm,-,N/A,,Clear,0,2012-04-21 03:35:00
10:55 PM,44.6,39.2,81,30.01,10.0,Calm,Calm,-,N/A,,Clear,0,2012-04-21 03:55:00
11:15 PM,42.8,37.4,81,30.02,10.0,Calm,Calm,-,N/A,,Clear,0,2012-04-21 04:15:00
11:35 PM,42.8,39.2,87,30.02,8.0,Calm,Calm,-,N/A,,Clear,0,2012-04-21 04:35:00
11:55 PM,42.8,39.2,87,30.02,5.0,Calm,Calm,-,N/A,,Clear,0,2012-04-21 04:55:00